Time;durP1;ratioP1;P1;durP2;ratioP2;P2;SDS_P1;SDS_P2;PMS_P1;PMS_P2;Temp;Humidity;BMP_temperature;BMP_pressure;BME280_temperature;BME280_humidity;BME280_pressure;Samples;Min_cycle;Max_cycle;Signal;HPM_P1;HPM_P2
2021/09/17 00:01:45;;;;;;;;;;;14.10;99.90;;;;;;5052564;28;20068;-78
2021/09/17 00:04:11;;;;;;;8.60;5.05;;;14.20;99.90;;;;;;5050604;28;19917;-79
2021/09/17 00:06:36;;;;;;;9.23;5.85;;;14.20;99.90;;;;;;5041606;28;20057;-80
2021/09/17 00:09:03;;;;;;;8.23;4.25;;;14.10;99.90;;;;;;5062032;28;20281;-79
2021/09/17 00:11:28;;;;;;;7.80;4.75;;;14.10;99.90;;;;;;5050659;28;20041;-80
2021/09/17 00:13:54;;;;;;;13.50;3.90;;;14.00;99.90;;;;;;5066594;28;20033;-79
2021/09/17 00:16:20;;;;;;;5.82;4.20;;;13.90;99.90;;;;;;5050222;28;20107;-80
2021/09/17 00:18:46;;;;;;;8.05;5.22;;;13.80;99.90;;;;;;5032669;28;20037;-79
2021/09/17 00:21:12;;;;;;;;;;;13.90;99.90;;;;;;5051874;28;20112;-79
2021/09/17 00:23:39;;;;;;;7.47;4.53;;;13.80;99.90;;;;;;5050691;28;19921;-79
2021/09/17 00:26:06;;;;;;;9.82;6.35;;;13.80;99.90;;;;;;5044813;28;20470;-80
2021/09/17 00:28:32;;;;;;;10.05;6.18;;;13.80;99.90;;;;;;5058096;28;20052;-79
2021/09/17 00:31:01;;;;;;;12.63;5.10;;;13.80;99.90;;;;;;5052358;28;20049;-80
2021/09/17 00:33:29;;;;;;;4.10;3.70;;;13.80;99.90;;;;;;5066181;28;20691;-80
2021/09/17 00:35:56;;;;;;;8.25;4.47;;;13.80;99.90;;;;;;5050403;28;20045;-79
2021/09/17 00:38:23;;;;;;;6.55;4.22;;;13.80;99.90;;;;;;5014606;28;20059;-80
2021/09/17 00:40:49;;;;;;;8.40;6.25;;;13.80;99.90;;;;;;5041923;28;20049;-79
2021/09/17 00:43:16;;;;;;;9.15;5.82;;;13.80;99.90;;;;;;5065790;28;20063;-80
2021/09/17 00:45:44;;;;;;;11.00;5.68;;;13.80;99.90;;;;;;5033645;28;20041;-80
2021/09/17 00:48:11;;;;;;;13.65;5.65;;;13.80;99.90;;;;;;5064192;28;20493;-79
2021/09/17 00:50:37;;;;;;;11.30;7.10;;;13.80;99.90;;;;;;5050133;28;20053;-79
2021/09/17 00:53:03;;;;;;;;;;;13.70;99.90;;;;;;5067191;28;20124;-79
2021/09/17 00:55:29;;;;;;;8.60;6.13;;;13.60;99.90;;;;;;5049399;28;20046;-79
2021/09/17 00:57:56;;;;;;;;;;;13.60;99.90;;;;;;5060786;28;20373;-80
2021/09/17 01:00:22;;;;;;;9.20;5.68;;;13.60;99.90;;;;;;5049073;28;19917;-79
2021/09/17 01:02:48;;;;;;;;;;;13.50;99.90;;;;;;5065804;28;20075;-79
2021/09/17 01:05:15;;;;;;;7.47;4.85;;;13.50;99.90;;;;;;5043611;28;19971;-80
2021/09/17 01:07:42;;;;;;;7.75;5.30;;;13.50;99.90;;;;;;5033843;28;20052;-79
2021/09/17 01:10:09;;;;;;;7.68;5.30;;;13.50;99.90;;;;;;5032558;28;20053;-79
2021/09/17 01:12:37;;;;;;;10.68;4.78;;;13.60;99.90;;;;;;5032822;28;20037;-80
2021/09/17 01:15:04;;;;;;;8.55;6.15;;;13.40;99.90;;;;;;5049930;28;20052;-81
2021/09/17 01:17:39;;;;;;;8.73;5.30;;;13.40;99.90;;;;;;5047693;28;20048;-81
2021/09/17 01:20:08;;;;;;;4.68;4.18;;;13.30;99.90;;;;;;5065785;28;20060;-79
2021/09/17 01:22:33;;;;;;;7.25;5.43;;;13.30;99.90;;;;;;5049176;28;20053;-79
2021/09/17 01:24:59;;;;;;;11.63;6.40;;;13.20;99.90;;;;;;5033723;28;20044;-79
2021/09/17 01:27:25;;;;;;;8.02;5.47;;;13.20;99.90;;;;;;5064223;28;20135;-80
2021/09/17 01:29:52;;;;;;;8.02;5.45;;;13.20;99.90;;;;;;5050601;28;20094;-80
2021/09/17 01:32:19;;;;;;;6.30;4.20;;;13.20;99.90;;;;;;5041471;28;20044;-81
2021/09/17 01:34:46;;;;;;;9.65;5.55;;;13.10;99.90;;;;;;5065535;28;20095;-80
2021/09/17 01:37:12;;;;;;;9.85;6.10;;;13.10;99.90;;;;;;5068992;28;20128;-80
2021/09/17 01:39:38;;;;;;;8.02;5.85;;;13.00;99.90;;;;;;5052137;28;20127;-79
2021/09/17 01:42:04;;;;;;;8.95;5.20;;;13.00;99.90;;;;;;5052977;28;20041;-80
2021/09/17 01:44:36;;;;;;;9.00;4.85;;;13.00;99.90;;;;;;5035540;28;20064;-81
2021/09/17 01:47:02;;;;;;;6.65;4.43;;;13.10;99.90;;;;;;5069920;28;20041;-79
2021/09/17 01:49:28;;;;;;;8.23;5.35;;;13.10;99.90;;;;;;5068349;28;20485;-80
2021/09/17 01:51:54;;;;;;;11.00;4.85;;;13.10;99.90;;;;;;5036348;28;20083;-80
2021/09/17 01:54:19;;;;;;;;;;;13.10;99.90;;;;;;5063844;28;20116;-80
2021/09/17 01:56:45;;;;;;;10.80;7.45;;;13.10;99.90;;;;;;5050959;28;20250;-80
2021/09/17 01:59:11;;;;;;;11.98;6.90;;;13.20;99.90;;;;;;5052809;28;20045;-80
2021/09/17 02:01:37;;;;;;;11.05;6.55;;;13.20;99.90;;;;;;5052445;28;20478;-80
2021/09/17 02:04:03;;;;;;;6.38;4.35;;;13.20;99.90;;;;;;5034676;28;20048;-80
2021/09/17 02:06:29;;;;;;;13.68;6.75;;;13.30;99.90;;;;;;5035482;28;20048;-80
2021/09/17 02:08:56;;;;;;;;;;;13.30;99.90;;;;;;5047520;28;20191;-80
2021/09/17 02:11:23;;;;;;;7.20;5.88;;;13.30;99.90;;;;;;5051878;28;20290;-81
2021/09/17 02:13:49;;;;;;;9.82;6.32;;;13.40;99.90;;;;;;5052728;28;20056;-80
2021/09/17 02:16:15;;;;;;;12.10;6.78;;;13.40;99.90;;;;;;5046926;28;20041;-80
2021/09/17 02:18:41;;;;;;;;;;;13.50;99.90;;;;;;5006861;28;20037;-80
2021/09/17 02:21:07;;;;;;;12.80;5.97;;;13.40;99.90;;;;;;5050634;28;19986;-79
2021/09/17 02:23:33;;;;;;;6.07;4.22;;;13.50;99.90;;;;;;5062999;28;20045;-80
2021/09/17 02:25:59;;;;;;;9.75;6.00;;;13.50;99.90;;;;;;5063795;28;20045;-81
2021/09/17 02:28:24;;;;;;;7.90;5.30;;;13.50;99.90;;;;;;5066608;28;20051;-80
2021/09/17 02:30:50;;;;;;;;;;;13.50;99.90;;;;;;5067521;28;20076;-79
2021/09/17 02:33:16;;;;;;;10.13;5.45;;;13.50;99.90;;;;;;5033801;28;19927;-80
2021/09/17 02:35:42;;;;;;;9.32;5.88;;;13.50;99.90;;;;;;5062605;28;20049;-79
2021/09/17 02:38:08;;;;;;;7.20;4.63;;;13.50;99.90;;;;;;5048093;28;20048;-80
2021/09/17 02:40:35;;;;;;;9.63;5.95;;;13.50;99.90;;;;;;5060143;28;20041;-80
2021/09/17 02:43:01;;;;;;;5.93;4.57;;;13.50;99.90;;;;;;5045261;28;20044;-80
2021/09/17 02:45:27;;;;;;;5.47;4.20;;;13.50;99.90;;;;;;5067958;28;20041;-80
2021/09/17 02:47:53;;;;;;;10.43;5.75;;;13.50;99.90;;;;;;5054489;28;20505;-81
2021/09/17 02:50:19;;;;;;;17.85;6.40;;;13.50;99.90;;;;;;5071885;28;20041;-80
2021/09/17 02:52:45;;;;;;;11.10;6.28;;;13.50;99.90;;;;;;5036700;28;20107;-80
2021/09/17 02:55:11;;;;;;;6.97;5.15;;;13.40;99.90;;;;;;5035615;28;20037;-80
2021/09/17 02:57:38;;;;;;;11.38;6.13;;;13.40;99.90;;;;;;5067932;28;20060;-80
2021/09/17 03:00:09;;;;;;;12.02;6.13;;;13.40;99.90;;;;;;5068101;28;20052;-80
2021/09/17 03:02:35;;;;;;;12.80;5.15;;;13.40;99.90;;;;;;5067335;28;20457;-79
2021/09/17 03:05:01;;;;;;;9.60;5.97;;;13.30;99.90;;;;;;5050773;28;20076;-79
2021/09/17 03:07:27;;;;;;;10.52;5.30;;;13.30;99.90;;;;;;5054641;28;20047;-81
2021/09/17 03:09:53;;;;;;;7.22;5.45;;;13.20;99.90;;;;;;5065347;28;20060;-79
2021/09/17 03:12:19;;;;;;;;;;;13.10;99.90;;;;;;5051175;28;20059;-81
2021/09/17 03:14:50;;;;;;;11.45;5.72;;;13.10;99.90;;;;;;5051480;28;19923;-79
2021/09/17 03:17:16;;;;;;;9.55;6.38;;;13.10;99.90;;;;;;5059917;28;20524;-79
2021/09/17 03:19:42;;;;;;;;;;;13.20;99.90;;;;;;5051296;28;20108;-80
2021/09/17 03:22:09;;;;;;;8.50;6.40;;;13.20;99.90;;;;;;5050612;28;20350;-80
2021/09/17 03:24:35;;;;;;;11.93;5.80;;;13.20;99.90;;;;;;5030394;28;20041;-80
2021/09/17 03:27:01;;;;;;;8.30;5.07;;;13.20;99.90;;;;;;5031940;28;20033;-80
2021/09/17 03:29:27;;;;;;;12.32;6.30;;;13.30;99.90;;;;;;5060384;28;20041;-80
2021/09/17 03:31:52;;;;;;;;;;;13.40;99.90;;;;;;5033921;28;20075;-80
2021/09/17 03:34:18;;;;;;;9.30;6.00;;;13.40;99.90;;;;;;5033638;28;19916;-80
2021/09/17 03:36:44;;;;;;;8.63;5.82;;;13.60;99.90;;;;;;5066980;28;20045;-81
2021/09/17 03:39:12;;;;;;;10.30;6.95;;;13.40;99.90;;;;;;5067803;28;20390;-80
2021/09/17 03:41:39;;;;;;;12.65;6.55;;;13.40;99.90;;;;;;5064889;28;20190;-80
2021/09/17 03:44:05;;;;;;;11.55;5.55;;;13.40;99.90;;;;;;5049204;28;20095;-80
2021/09/17 03:46:31;;;;;;;;;;;13.40;99.90;;;;;;5066842;28;20040;-80
2021/09/17 03:48:57;;;;;;;12.20;6.82;;;13.40;99.90;;;;;;5050287;28;19924;-79
2021/09/17 03:51:24;;;;;;;9.82;7.65;;;13.30;99.90;;;;;;5034076;28;20095;-80
2021/09/17 03:53:50;;;;;;;14.20;6.63;;;13.30;99.90;;;;;;5068465;28;20040;-80
2021/09/17 03:56:17;;;;;;;10.05;5.80;;;13.30;99.90;;;;;;5034304;28;20075;-80
2021/09/17 03:58:43;;;;;;;6.05;5.25;;;13.20;99.90;;;;;;5033894;28;20044;-80
2021/09/17 04:01:08;;;;;;;10.98;7.30;;;13.20;99.90;;;;;;5042981;28;20042;-80
2021/09/17 04:03:34;;;;;;;11.85;7.13;;;13.20;99.90;;;;;;5045657;28;20123;-80
2021/09/17 04:06:00;;;;;;;;;;;13.30;99.90;;;;;;5068073;28;20477;-79
2021/09/17 04:08:26;;;;;;;9.10;5.25;;;13.30;99.90;;;;;;5049466;28;20263;-79
2021/09/17 04:10:52;;;;;;;6.70;4.50;;;13.40;99.90;;;;;;5054921;28;20372;-79
2021/09/17 04:13:18;;;;;;;10.77;5.70;;;13.40;99.90;;;;;;5050664;28;20052;-80
2021/09/17 04:15:43;;;;;;;11.82;7.20;;;13.40;99.90;;;;;;5050369;28;20045;-79
2021/09/17 04:18:09;;;;;;;13.70;6.85;;;13.40;99.90;;;;;;5049279;28;20032;-80
2021/09/17 04:20:35;;;;;;;9.90;5.90;;;13.50;99.90;;;;;;5065767;28;20044;-80
2021/09/17 04:23:01;;;;;;;;;;;13.50;99.90;;;;;;5067626;28;20432;-79
2021/09/17 04:25:28;;;;;;;7.80;5.43;;;13.50;99.90;;;;;;5048455;28;19916;-79
2021/09/17 04:27:55;;;;;;;7.10;4.93;;;13.50;99.90;;;;;;5030963;28;20125;-79
2021/09/17 04:30:21;;;;;;;10.13;4.85;;;13.60;99.90;;;;;;5066236;28;20053;-79
2021/09/17 04:32:47;;;;;;;6.60;5.00;;;13.60;99.90;;;;;;5055181;28;20483;-79
2021/09/17 04:35:13;;;;;;;10.73;6.95;;;13.70;99.90;;;;;;5065130;28;20045;-79
2021/09/17 04:37:41;;;;;;;11.15;7.10;;;13.70;99.90;;;;;;5032543;28;20045;-79
2021/09/17 04:40:09;;;;;;;12.10;6.75;;;13.80;99.90;;;;;;5059294;28;20049;-80
2021/09/17 04:42:35;;;;;;;9.10;6.10;;;13.80;99.90;;;;;;5048343;28;20040;-79
2021/09/17 04:45:01;;;;;;;8.00;5.00;;;13.80;99.90;;;;;;5045127;28;20045;-79
2021/09/17 04:47:27;;;;;;;9.80;6.68;;;13.90;99.90;;;;;;5061824;28;20097;-79
2021/09/17 04:49:53;;;;;;;8.10;5.72;;;13.90;99.90;;;;;;5065062;28;20118;-79
2021/09/17 04:52:21;;;;;;;7.43;4.95;;;13.90;99.90;;;;;;5049395;28;20107;-80
2021/09/17 04:54:48;;;;;;;7.78;6.07;;;13.90;99.90;;;;;;5058990;28;20058;-80
2021/09/17 04:57:16;;;;;;;8.32;6.60;;;14.00;99.90;;;;;;5042666;28;20827;-80
2021/09/17 04:59:42;;;;;;;9.10;5.97;;;14.00;99.90;;;;;;5049595;28;20087;-81
2021/09/17 05:02:08;;;;;;;;;;;14.00;99.90;;;;;;5051277;28;20091;-79
2021/09/17 05:04:34;;;;;;;15.57;6.93;;;13.90;99.90;;;;;;5043756;28;19916;-81
2021/09/17 05:06:59;;;;;;;10.88;5.75;;;13.90;99.90;;;;;;5050806;28;20051;-81
2021/09/17 05:09:26;;;;;;;12.63;5.82;;;14.00;99.90;;;;;;5054158;28;20056;-80
2021/09/17 05:11:52;;;;;;;8.27;6.22;;;14.00;99.90;;;;;;5074725;28;20040;-78
2021/09/17 05:14:18;;;;;;;5.95;5.18;;;14.00;99.90;;;;;;5070983;28;20120;-78
2021/09/17 05:16:45;;;;;;;11.75;6.20;;;14.00;99.90;;;;;;5036304;28;20190;-79
2021/09/17 05:19:14;;;;;;;9.55;4.75;;;14.00;99.90;;;;;;5069472;28;20044;-79
2021/09/17 05:21:40;;;;;;;8.55;6.70;;;14.00;99.90;;;;;;5051555;28;20073;-80
2021/09/17 05:24:06;;;;;;;9.48;6.03;;;14.00;99.90;;;;;;5020812;28;20072;-80
2021/09/17 05:26:32;;;;;;;;;;;14.00;99.90;;;;;;5069953;28;20363;-79
2021/09/17 05:28:58;;;;;;;8.05;5.70;;;14.10;99.90;;;;;;5049403;28;19939;-76
2021/09/17 05:31:24;;;;;;;9.80;6.40;;;14.10;99.90;;;;;;5057571;28;20037;-79
2021/09/17 05:33:50;;;;;;;5.90;4.43;;;14.10;99.90;;;;;;5037840;28;20037;-80
2021/09/17 05:36:15;;;;;;;5.90;3.80;;;14.10;99.90;;;;;;5039112;28;20041;-80
2021/09/17 05:38:41;;;;;;;;;;;14.00;99.90;;;;;;5071230;28;20125;-79
2021/09/17 05:41:07;;;;;;;9.65;4.38;;;14.10;99.90;;;;;;5054708;28;19967;-79
2021/09/17 05:43:33;;;;;;;;;;;14.10;99.90;;;;;;5042291;28;20139;-79
2021/09/17 05:45:58;;;;;;;10.35;5.47;;;14.10;99.90;;;;;;5053678;28;20508;-80
2021/09/17 05:48:24;;;;;;;8.00;5.00;;;14.10;99.90;;;;;;5036080;28;20398;-79
2021/09/17 05:50:51;;;;;;;11.05;5.32;;;14.20;99.90;;;;;;5067394;28;20048;-79
2021/09/17 05:53:18;;;;;;;8.25;5.40;;;14.10;99.90;;;;;;5070578;28;20048;-79
2021/09/17 05:55:44;;;;;;;8.05;5.53;;;14.20;99.90;;;;;;5069993;28;20053;-79
2021/09/17 05:58:10;;;;;;;10.85;6.35;;;14.20;99.90;;;;;;5055275;28;20382;-79
2021/09/17 06:00:36;;;;;;;9.68;7.40;;;14.20;99.90;;;;;;5065811;28;20041;-78
2021/09/17 06:03:02;;;;;;;13.45;6.03;;;14.20;99.90;;;;;;5065995;28;20045;-79
2021/09/17 06:05:28;;;;;;;11.43;6.22;;;14.30;99.90;;;;;;5069367;28;20428;-78
2021/09/17 06:07:54;;;;;;;6.80;5.18;;;14.30;99.90;;;;;;5059647;28;20049;-79
2021/09/17 06:10:20;;;;;;;;;;;14.40;99.90;;;;;;5067891;28;20061;-79
2021/09/17 06:12:46;;;;;;;8.80;5.57;;;14.40;99.90;;;;;;5042784;28;20004;-80
2021/09/17 06:15:13;;;;;;;8.75;5.55;;;14.50;99.90;;;;;;5048369;28;20037;-81
2021/09/17 06:17:40;;;;;;;10.48;7.30;;;14.50;99.90;;;;;;5052087;28;20045;-79
2021/09/17 06:20:08;;;;;;;7.65;6.28;;;14.50;99.90;;;;;;5050846;28;20056;-80
2021/09/17 06:22:33;;;;;;;8.90;6.30;;;14.50;99.90;;;;;;5027405;28;20053;-80
2021/09/17 06:25:00;;;;;;;11.40;4.93;;;14.50;99.90;;;;;;5032255;28;20048;-79
2021/09/17 06:27:26;;;;;;;11.38;7.45;;;14.50;99.90;;;;;;5064900;28;20041;-80
2021/09/17 06:29:52;;;;;;;9.73;7.13;;;14.60;99.90;;;;;;5032880;28;20045;-80
2021/09/17 06:32:18;;;;;;;10.45;8.73;;;14.60;99.90;;;;;;5048910;28;20033;-79
2021/09/17 06:34:44;;;;;;;;;;;14.60;99.90;;;;;;5068220;28;20049;-79
2021/09/17 06:37:09;;;;;;;10.00;7.68;;;14.60;99.90;;;;;;5022275;28;19916;-81
2021/09/17 06:39:36;;;;;;;;;;;14.60;99.90;;;;;;5067861;28;20084;-81
2021/09/17 06:42:02;;;;;;;8.98;5.70;;;14.70;99.90;;;;;;5069354;28;20091;-80
2021/09/17 06:44:29;;;;;;;;;;;14.70;99.90;;;;;;5071154;28;20047;-81
2021/09/17 06:46:56;;;;;;;9.10;5.55;;;14.80;99.90;;;;;;5054116;28;19947;-80
2021/09/17 06:49:23;;;;;;;9.60;5.57;;;14.80;99.90;;;;;;5034800;28;20090;-81
2021/09/17 06:51:49;;;;;;;10.15;6.05;;;15.00;99.90;;;;;;5034595;28;20044;-80
2021/09/17 06:54:14;;;;;;;11.05;5.85;;;15.10;99.90;;;;;;5045087;28;20143;-81
2021/09/17 06:56:40;;;;;;;7.63;5.15;;;15.30;99.90;;;;;;5051798;28;20073;-80
2021/09/17 06:59:06;;;;;;;;;;;15.50;99.90;;;;;;5068810;28;20079;-81
2021/09/17 07:01:32;;;;;;;6.97;5.53;;;15.70;99.90;;;;;;5062309;28;19921;-81
2021/09/17 07:03:57;;;;;;;;;;;15.90;99.90;;;;;;5062662;28;20037;-80
2021/09/17 07:06:23;;;;;;;12.70;5.65;;;16.00;99.90;;;;;;5041937;28;20262;-81
2021/09/17 07:08:49;;;;;;;;;;;16.20;99.90;;;;;;5068101;28;20134;-80
2021/09/17 07:11:15;;;;;;;7.88;4.68;;;16.20;99.90;;;;;;5050061;28;19931;-80
2021/09/17 07:13:41;;;;;;;;;;;16.30;99.90;;;;;;5029535;28;20437;-80
2021/09/17 07:16:06;;;;;;;7.32;4.75;;;16.30;99.90;;;;;;5051637;28;19955;-80
2021/09/17 07:18:33;;;;;;;8.57;5.45;;;16.40;99.90;;;;;;5069196;28;20029;-80
2021/09/17 07:20:58;;;;;;;;;;;16.40;99.90;;;;;;5034511;28;20104;-82
2021/09/17 07:23:24;;;;;;;9.13;5.18;;;16.50;99.90;;;;;;5048597;28;19991;-80
2021/09/17 07:25:50;;;;;;;;;;;16.50;99.90;;;;;;5052831;28;20143;-80
2021/09/17 07:28:16;;;;;;;7.30;4.30;;;16.70;99.90;;;;;;5066505;28;19938;-79
2021/09/17 07:30:41;;;;;;;;;;;16.90;99.90;;;;;;5062356;28;20045;-80
2021/09/17 07:33:07;;;;;;;7.47;4.90;;;16.90;99.90;;;;;;5044673;28;19986;-80
2021/09/17 07:35:33;;;;;;;;;;;17.00;99.90;;;;;;5051830;28;20037;-80
2021/09/17 07:38:00;;;;;;;8.52;4.60;;;17.00;99.90;;;;;;5031982;28;19920;-80
2021/09/17 07:40:27;;;;;;;8.57;5.18;;;17.10;99.90;;;;;;5050357;28;20065;-79
2021/09/17 07:42:54;;;;;;;7.00;3.95;;;;;;;;;;5065123;28;20098;-81
2021/09/17 07:45:21;;;;;;;6.70;4.22;;;17.10;99.90;;;;;;5039852;28;20072;-81
2021/09/17 07:47:47;;;;;;;6.82;5.07;;;17.20;99.90;;;;;;5049090;28;20048;-81
2021/09/17 07:50:15;;;;;;;8.73;4.65;;;17.20;99.90;;;;;;5059685;28;20048;-81
2021/09/17 07:52:42;;;;;;;6.22;4.43;;;;;;;;;;5049575;28;20055;-80
2021/09/17 07:55:09;;;;;;;7.88;4.95;;;17.40;99.90;;;;;;5047825;28;20348;-81
2021/09/17 07:57:41;;;;;;;5.18;4.20;;;17.40;99.90;;;;;;5066142;28;20130;-81
2021/09/17 08:00:09;;;;;;;11.05;4.57;;;17.50;99.90;;;;;;5042345;28;20068;-80
2021/09/17 08:02:44;;;;;;;5.13;3.70;;;17.50;99.90;;;;;;5060379;28;20083;-80
2021/09/17 08:05:10;;;;;;;3.83;3.38;;;17.50;99.90;;;;;;5050845;28;20389;-80
2021/09/17 08:07:37;;;;;;;5.50;3.80;;;17.60;99.90;;;;;;5067790;28;20040;-81
2021/09/17 08:10:04;;;;;;;6.38;4.25;;;17.60;99.90;;;;;;5032643;28;20060;-80
2021/09/17 08:12:30;;;;;;;8.43;4.20;;;17.70;99.90;;;;;;5034395;28;20080;-80
2021/09/17 08:14:56;;;;;;;5.22;3.42;;;17.70;99.90;;;;;;5066742;28;20045;-80
2021/09/17 08:17:22;;;;;;;;;;;17.80;99.90;;;;;;5050748;28;20087;-80
2021/09/17 08:19:48;;;;;;;4.57;3.53;;;17.80;99.90;;;;;;5048881;28;19966;-80
2021/09/17 08:22:14;;;;;;;4.05;2.90;;;17.80;99.90;;;;;;5065505;28;20110;-80
2021/09/17 08:24:40;;;;;;;;;;;17.90;99.90;;;;;;5034406;28;20041;-81
2021/09/17 08:27:06;;;;;;;4.90;3.13;;;18.00;99.90;;;;;;5041621;28;19920;-81
2021/09/17 08:29:31;;;;;;;;;;;18.00;99.90;;;;;;5067684;28;20049;-80
2021/09/17 08:31:59;;;;;;;4.07;1.55;;;18.10;99.90;;;;;;5047326;28;19968;-80
2021/09/17 08:34:25;;;;;;;2.40;1.30;;;18.10;99.90;;;;;;5066898;28;20045;-80
2021/09/17 08:36:51;;;;;;;1.25;1.13;;;18.20;99.90;;;;;;5051109;28;20497;-80
2021/09/17 08:39:17;;;;;;;;;;;18.40;99.90;;;;;;5047514;28;20046;-80
2021/09/17 08:41:45;;;;;;;1.48;0.80;;;18.40;99.90;;;;;;5031488;28;20321;-79
2021/09/17 08:44:11;;;;;;;1.38;0.95;;;18.50;99.90;;;;;;5045279;28;20045;-79
2021/09/17 08:46:41;;;;;;;;;;;18.50;99.90;;;;;;5024383;28;20038;-80
2021/09/17 08:49:08;;;;;;;3.15;2.05;;;18.40;99.90;;;;;;5050134;28;20020;-81
2021/09/17 08:51:34;;;;;;;5.85;2.17;;;18.40;99.90;;;;;;5064293;28;20041;-80
2021/09/17 08:54:02;;;;;;;1.65;1.15;;;18.50;99.90;;;;;;5035077;28;20107;-79
2021/09/17 08:56:29;;;;;;;1.17;1.00;;;18.50;99.90;;;;;;5050869;28;20041;-80
2021/09/17 08:58:55;;;;;;;1.02;0.93;;;18.50;99.90;;;;;;5034678;28;20055;-80
2021/09/17 09:01:36;;;;;;;1.27;1.08;;;18.50;99.90;;;;;;5019370;28;20485;-79
2021/09/17 09:04:07;;;;;;;0.70;0.70;;;18.60;99.90;;;;;;5044701;28;20498;-81
2021/09/17 09:06:38;;;;;;;0.60;0.60;;;18.80;99.90;;;;;;5051963;28;20056;-80
2021/09/17 09:09:18;;;;;;;1.08;0.85;;;19.00;99.90;;;;;;5044486;28;20075;-80
2021/09/17 09:11:49;;;;;;;0.82;0.65;;;19.20;99.90;;;;;;5034923;28;20084;-80
2021/09/17 09:14:16;;;;;;;1.00;0.70;;;19.40;99.90;;;;;;5064265;28;20045;-80
2021/09/17 09:16:48;;;;;;;0.50;0.50;;;19.60;99.90;;;;;;5037476;28;20041;-80
2021/09/17 09:19:21;;;;;;;1.05;0.80;;;19.70;99.90;;;;;;5036763;28;20053;-80
2021/09/17 09:21:48;;;;;;;1.17;0.90;;;19.80;99.90;;;;;;5050251;28;20043;-80
2021/09/17 09:24:16;;;;;;;1.27;1.00;;;19.90;99.90;;;;;;5049425;28;20041;-80
2021/09/17 09:26:45;;;;;;;3.58;1.10;;;20.00;99.90;;;;;;5034931;28;20041;-79
2021/09/17 09:29:29;;;;;;;0.75;0.65;;;20.00;99.90;;;;;;5051429;28;20041;-80
2021/09/17 09:31:56;;;;;;;1.33;0.95;;;20.10;99.90;;;;;;5043141;28;20128;-80
2021/09/17 09:34:42;;;;;;;4.72;1.02;;;20.10;99.90;;;;;;5032904;28;20052;-80
2021/09/17 09:37:10;;;;;;;0.93;0.80;;;20.10;99.90;;;;;;5034400;28;20564;-80
2021/09/17 09:39:58;;;;;;;1.27;0.90;;;20.10;99.90;;;;;;5033884;28;20047;-81
2021/09/17 09:42:41;;;;;;;0.93;0.85;;;20.40;99.90;;;;;;5033567;28;20079;-79
2021/09/17 09:45:10;;;;;;;0.98;0.75;;;20.60;99.90;;;;;;5063144;28;20060;-79
2021/09/17 09:47:39;;;;;;;0.75;0.73;;;21.00;99.90;;;;;;5061843;28;20045;-80
2021/09/17 09:50:16;;;;;;;1.73;1.10;;;21.10;99.90;;;;;;5060132;28;20334;-80
2021/09/17 09:52:42;;;;;;;1.23;1.10;;;20.90;99.90;;;;;;5047655;28;20050;-81
2021/09/17 09:55:09;;;;;;;1.85;1.13;;;20.70;99.90;;;;;;5021215;28;20060;-80
2021/09/17 09:57:36;;;;;;;1.70;0.75;;;20.60;99.90;;;;;;5050060;28;20116;-80
2021/09/17 10:00:07;;;;;;;1.35;0.98;;;20.60;99.90;;;;;;5040645;28;20097;-76
2021/09/17 10:02:34;;;;;;;2.67;1.13;;;20.60;99.90;;;;;;5056258;28;20088;-80
2021/09/17 10:05:00;;;;;;;1.08;0.80;;;20.60;99.90;;;;;;5048803;28;20045;-80
2021/09/17 10:07:30;;;;;;;1.83;1.35;;;20.60;99.90;;;;;;5033286;28;20120;-80
2021/09/17 10:09:57;;;;;;;2.05;1.35;;;20.70;99.90;;;;;;5035804;28;20375;-80
2021/09/17 10:12:24;;;;;;;4.25;1.00;;;20.60;99.90;;;;;;5047424;28;20040;-79
2021/09/17 10:14:52;;;;;;;1.00;0.90;;;20.50;99.90;;;;;;5054778;28;20044;-79
2021/09/17 10:17:21;;;;;;;0.70;0.70;;;20.50;99.90;;;;;;5021600;28;20124;-80
2021/09/17 10:19:49;;;;;;;1.10;1.00;;;20.40;99.90;;;;;;5031903;28;20479;-79
2021/09/17 10:22:32;;;;;;;1.27;1.08;;;20.20;99.90;;;;;;5044083;28;20103;-80
2021/09/17 10:25:07;;;;;;;1.73;0.85;;;20.20;99.90;;;;;;5042982;28;20130;-79
2021/09/17 10:27:33;;;;;;;1.27;0.98;;;20.30;99.90;;;;;;5051186;28;20053;-79
2021/09/17 10:30:02;;;;;;;0.70;0.70;;;20.30;99.90;;;;;;5033777;28;20037;-79
2021/09/17 10:32:27;;;;;;;1.00;0.88;;;20.30;99.90;;;;;;5048747;28;20046;-79
2021/09/17 10:35:10;;;;;;;1.40;1.17;;;20.30;99.90;;;;;;5060676;28;20055;-79
2021/09/17 10:38:02;;;;;;;1.88;1.25;;;20.30;99.90;;;;;;5040908;28;20505;-79
2021/09/17 10:40:34;;;;;;;1.10;1.00;;;20.50;99.90;;;;;;5030590;28;20065;-80
2021/09/17 10:43:20;;;;;;;3.75;1.13;;;20.60;99.90;;;;;;5048803;28;20051;-79
2021/09/17 10:45:47;;;;;;;1.02;0.85;;;20.60;99.90;;;;;;5043000;28;20429;-79
2021/09/17 10:48:18;;;;;;;0.82;0.80;;;20.70;99.90;;;;;;5054410;28;20049;-79
2021/09/17 10:50:49;;;;;;;2.40;1.02;;;20.50;99.90;;;;;;5060136;28;20050;-79
2021/09/17 10:53:40;;;;;;;1.35;1.00;;;20.50;99.90;;;;;;5039530;28;20111;-80
2021/09/17 10:56:11;;;;;;;1.73;1.05;;;20.40;99.90;;;;;;5055187;28;20041;-80
2021/09/17 10:58:38;;;;;;;1.40;0.80;;;20.30;99.90;;;;;;5052143;28;20056;-80
2021/09/17 11:01:12;;;;;;;0.77;0.65;;;20.30;99.90;;;;;;5021995;28;20068;-80
2021/09/17 11:03:48;;;;;;;1.25;0.88;;;20.40;99.90;;;;;;5031584;28;20099;-79
2021/09/17 11:06:24;;;;;;;1.67;1.17;;;20.40;99.90;;;;;;5051365;28;20053;-79
2021/09/17 11:09:02;;;;;;;2.28;0.98;;;20.30;99.90;;;;;;5029835;28;20085;-80
2021/09/17 11:11:42;;;;;;;0.55;0.55;;;20.10;99.90;;;;;;5034226;28;20049;-79
2021/09/17 11:14:14;;;;;;;2.92;1.00;;;20.10;99.90;;;;;;5035000;28;20090;-79
2021/09/17 11:16:41;;;;;;;0.68;0.68;;;20.00;99.90;;;;;;5043572;28;20041;-80
2021/09/17 11:19:09;;;;;;;1.00;0.90;;;20.00;99.90;;;;;;5018209;28;20355;-79
2021/09/17 11:21:40;;;;;;;1.70;1.10;;;20.10;99.90;;;;;;5060407;28;20033;-80
2021/09/17 11:24:19;;;;;;;1.40;0.90;;;20.00;99.90;;;;;;5036782;28;20049;-80
2021/09/17 11:26:49;;;;;;;1.13;0.80;;;20.00;99.90;;;;;;5057108;28;20769;-80
2021/09/17 11:29:17;;;;;;;1.02;0.85;;;20.00;99.90;;;;;;5031531;28;20041;-80
2021/09/17 11:31:49;;;;;;;0.85;0.70;;;20.10;99.90;;;;;;5052116;28;20163;-79
2021/09/17 11:34:17;;;;;;;0.82;0.73;;;20.20;99.90;;;;;;5032086;28;20045;-80
2021/09/17 11:36:45;;;;;;;0.65;0.60;;;20.30;99.90;;;;;;5063401;28;20073;-79
2021/09/17 11:39:14;;;;;;;2.85;0.93;;;20.50;99.90;;;;;;5031767;28;20045;-79
2021/09/17 11:41:42;;;;;;;2.17;0.90;;;20.70;99.90;;;;;;5049951;28;20037;-80
2021/09/17 11:44:08;;;;;;;0.45;0.45;;;20.80;99.90;;;;;;5059918;28;20171;-79
2021/09/17 11:46:35;;;;;;;0.77;0.65;;;20.90;99.90;;;;;;5046281;28;20132;-80
2021/09/17 11:49:01;;;;;;;1.15;0.98;;;21.00;99.90;;;;;;5014082;28;20048;-80
2021/09/17 11:51:27;;;;;;;0.60;0.57;;;21.00;99.90;;;;;;5061595;28;20504;-80
2021/09/17 11:53:53;;;;;;;5.75;0.88;;;21.10;99.90;;;;;;5038657;28;20124;-79
2021/09/17 11:56:19;;;;;;;0.88;0.82;;;21.10;99.90;;;;;;5038665;28;20049;-80
2021/09/17 11:58:47;;;;;;;0.80;0.68;;;21.30;99.90;;;;;;5055340;28;20041;-80
2021/09/17 12:01:17;;;;;;;1.30;0.73;;;21.30;99.90;;;;;;5033977;28;20060;-80
2021/09/17 12:03:43;;;;;;;0.85;0.80;;;21.30;99.90;;;;;;5039922;28;20053;-80
2021/09/17 12:06:11;;;;;;;0.30;0.30;;;21.30;99.90;;;;;;5036909;28;20049;-80
2021/09/17 12:08:37;;;;;;;0.50;0.50;;;21.30;99.90;;;;;;5055751;28;20048;-80
2021/09/17 12:11:03;;;;;;;1.20;0.85;;;21.30;99.90;;;;;;5021360;28;20069;-80
2021/09/17 12:13:30;;;;;;;0.98;0.73;;;21.30;99.90;;;;;;5051060;28;20045;-79
2021/09/17 12:15:57;;;;;;;0.80;0.52;;;21.40;99.90;;;;;;5066205;28;20044;-79
2021/09/17 12:18:29;;;;;;;1.23;0.88;;;21.50;99.90;;;;;;5008393;28;20044;-78
2021/09/17 12:20:56;;;;;;;0.95;0.70;;;21.40;99.90;;;;;;5051511;28;20064;-79
2021/09/17 12:23:33;;;;;;;0.60;0.60;;;21.30;99.90;;;;;;5034128;28;20057;-79
2021/09/17 12:26:10;;;;;;;0.85;0.63;;;21.20;99.90;;;;;;5045532;28;20056;-80
2021/09/17 12:28:36;;;;;;;2.53;0.80;;;21.10;99.90;;;;;;5046303;28;20052;-79
2021/09/17 12:31:03;;;;;;;1.65;1.02;;;21.10;99.90;;;;;;5048793;28;20054;-79
2021/09/17 12:33:33;;;;;;;2.05;0.77;;;21.10;99.90;;;;;;5047287;28;20029;-79
2021/09/17 12:36:12;;;;;;;0.93;0.60;;;21.00;99.90;;;;;;5039808;28;20501;-80
2021/09/17 12:38:38;;;;;;;1.10;0.80;;;20.90;99.90;;;;;;5021803;28;20458;-80
2021/09/17 12:41:11;;;;;;;0.75;0.50;;;21.00;99.90;;;;;;5057903;28;20045;-79
2021/09/17 12:43:37;;;;;;;1.50;0.85;;;21.10;99.90;;;;;;5030718;28;20059;-79
2021/09/17 12:46:12;;;;;;;0.90;0.90;;;21.30;99.90;;;;;;5042890;28;20116;-78
2021/09/17 12:48:45;;;;;;;0.82;0.50;;;21.40;99.90;;;;;;5038013;28;20371;-79
2021/09/17 12:51:28;;;;;;;0.63;0.60;;;21.70;99.90;;;;;;5020514;28;20067;-79
2021/09/17 12:54:00;;;;;;;0.32;0.32;;;21.90;99.90;;;;;;5031141;28;20056;-79
2021/09/17 12:56:26;;;;;;;0.30;0.30;;;22.00;99.90;;;;;;5048570;28;20066;-78
2021/09/17 12:59:17;;;;;;;0.93;0.65;;;22.10;99.90;;;;;;5024574;28;20088;-77